sensor_id;sensor_type;location;lat;lon;timestamp;P1;durP1;ratioP1;P2;durP2;ratioP2
67757;SDS011;54562;47.620;18.786;2022-11-04T00:00:35;29.30;;;13.50;;
67757;SDS011;54562;47.620;18.786;2022-11-04T00:03:43;30.20;;;14.80;;
67757;SDS011;54562;47.620;18.786;2022-11-04T00:06:52;26.70;;;12.60;;
67757;SDS011;54562;47.620;18.786;2022-11-04T00:10:01;27.30;;;12.90;;
67757;SDS011;54562;47.620;18.786;2022-11-04T00:13:09;22.40;;;10.20;;
67757;SDS011;54562;47.620;18.786;2022-11-04T00:16:17;20.10;;;9.20;;
67757;SDS011;54562;47.620;18.786;2022-11-04T00:19:43;23.30;;;9.40;;
67757;SDS011;54562;47.620;18.786;2022-11-04T00:23:10;15.00;;;7.10;;
67757;SDS011;54562;47.620;18.786;2022-11-04T00:26:35;23.20;;;10.60;;
67757;SDS011;54562;47.620;18.786;2022-11-04T00:30:01;17.70;;;7.40;;
67757;SDS011;54562;47.620;18.786;2022-11-04T00:33:11;27.00;;;12.70;;
67757;SDS011;54562;47.620;18.786;2022-11-04T00:36:31;30.10;;;14.60;;
67757;SDS011;54562;47.620;18.786;2022-11-04T00:39:39;18.50;;;7.20;;
67757;SDS011;54562;47.620;18.786;2022-11-04T00:42:48;23.10;;;11.10;;
67757;SDS011;54562;47.620;18.786;2022-11-04T00:45:56;30.40;;;13.90;;
67757;SDS011;54562;47.620;18.786;2022-11-04T00:49:05;26.50;;;11.90;;
67757;SDS011;54562;47.620;18.786;2022-11-04T00:52:12;31.20;;;15.50;;
67757;SDS011;54562;47.620;18.786;2022-11-04T00:55:20;25.00;;;10.50;;
67757;SDS011;54562;47.620;18.786;2022-11-04T00:58:30;14.20;;;6.20;;
67757;SDS011;54562;47.620;18.786;2022-11-04T01:01:38;30.60;;;13.60;;
67757;SDS011;54562;47.620;18.786;2022-11-04T01:04:46;18.30;;;8.60;;
67757;SDS011;54562;47.620;18.786;2022-11-04T01:07:55;27.30;;;12.20;;
67757;SDS011;54562;47.620;18.786;2022-11-04T01:11:04;31.30;;;14.10;;
67757;SDS011;54562;47.620;18.786;2022-11-04T01:14:13;23.40;;;9.10;;
67757;SDS011;54562;47.620;18.786;2022-11-04T01:17:22;20.20;;;7.90;;
67757;SDS011;54562;47.620;18.786;2022-11-04T01:20:30;18.20;;;7.70;;
67757;SDS011;54562;47.620;18.786;2022-11-04T01:23:38;30.80;;;12.60;;
67757;SDS011;54562;47.620;18.786;2022-11-04T01:26:47;29.60;;;13.50;;
67757;SDS011;54562;47.620;18.786;2022-11-04T01:29:55;27.90;;;13.80;;
67757;SDS011;54562;47.620;18.786;2022-11-04T01:33:04;26.10;;;13.40;;
67757;SDS011;54562;47.620;18.786;2022-11-04T01:36:12;26.10;;;11.50;;
67757;SDS011;54562;47.620;18.786;2022-11-04T01:39:21;30.70;;;13.20;;
67757;SDS011;54562;47.620;18.786;2022-11-04T01:42:28;27.60;;;12.10;;
67757;SDS011;54562;47.620;18.786;2022-11-04T01:45:36;26.60;;;13.90;;
67757;SDS011;54562;47.620;18.786;2022-11-04T01:48:45;29.70;;;13.60;;
67757;SDS011;54562;47.620;18.786;2022-11-04T01:51:58;29.70;;;13.50;;
67757;SDS011;54562;47.620;18.786;2022-11-04T01:55:13;29.20;;;13.10;;
67757;SDS011;54562;47.620;18.786;2022-11-04T01:58:27;30.90;;;14.60;;
67757;SDS011;54562;47.620;18.786;2022-11-04T02:01:37;29.50;;;13.30;;
67757;SDS011;54562;47.620;18.786;2022-11-04T02:04:46;32.00;;;14.60;;
67757;SDS011;54562;47.620;18.786;2022-11-04T02:07:56;31.10;;;14.70;;
67757;SDS011;54562;47.620;18.786;2022-11-04T02:11:07;32.10;;;14.70;;
67757;SDS011;54562;47.620;18.786;2022-11-04T02:14:15;31.30;;;15.10;;
67757;SDS011;54562;47.620;18.786;2022-11-04T02:17:35;32.70;;;14.10;;
67757;SDS011;54562;47.620;18.786;2022-11-04T02:21:18;33.90;;;13.40;;
67757;SDS011;54562;47.620;18.786;2022-11-04T02:25:03;27.90;;;12.60;;
67757;SDS011;54562;47.620;18.786;2022-11-04T02:28:36;34.70;;;16.20;;
67757;SDS011;54562;47.620;18.786;2022-11-04T02:32:05;32.80;;;14.40;;
67757;SDS011;54562;47.620;18.786;2022-11-04T02:35:22;34.30;;;15.60;;
67757;SDS011;54562;47.620;18.786;2022-11-04T02:38:41;32.60;;;15.10;;
67757;SDS011;54562;47.620;18.786;2022-11-04T02:42:00;36.30;;;16.00;;
67757;SDS011;54562;47.620;18.786;2022-11-04T02:45:18;31.70;;;14.20;;
67757;SDS011;54562;47.620;18.786;2022-11-04T02:48:34;33.40;;;15.10;;
67757;SDS011;54562;47.620;18.786;2022-11-04T02:51:48;34.50;;;15.20;;
67757;SDS011;54562;47.620;18.786;2022-11-04T02:55:04;33.00;;;14.60;;
67757;SDS011;54562;47.620;18.786;2022-11-04T02:58:20;30.70;;;12.80;;
67757;SDS011;54562;47.620;18.786;2022-11-04T03:01:35;31.20;;;14.10;;
67757;SDS011;54562;47.620;18.786;2022-11-04T03:04:49;32.40;;;15.10;;
67757;SDS011;54562;47.620;18.786;2022-11-04T03:08:02;31.10;;;15.30;;
67757;SDS011;54562;47.620;18.786;2022-11-04T03:11:16;31.20;;;14.10;;
67757;SDS011;54562;47.620;18.786;2022-11-04T03:14:27;34.60;;;14.00;;
67757;SDS011;54562;47.620;18.786;2022-11-04T03:17:45;30.80;;;14.80;;
67757;SDS011;54562;47.620;18.786;2022-11-04T03:21:03;29.20;;;13.60;;
67757;SDS011;54562;47.620;18.786;2022-11-04T03:24:14;28.80;;;11.90;;
67757;SDS011;54562;47.620;18.786;2022-11-04T03:27:30;33.30;;;13.10;;
67757;SDS011;54562;47.620;18.786;2022-11-04T03:30:47;30.00;;;11.20;;
67757;SDS011;54562;47.620;18.786;2022-11-04T03:33:57;24.50;;;10.90;;
67757;SDS011;54562;47.620;18.786;2022-11-04T03:37:06;18.20;;;8.00;;
67757;SDS011;54562;47.620;18.786;2022-11-04T03:40:15;19.80;;;9.00;;
67757;SDS011;54562;47.620;18.786;2022-11-04T03:43:26;25.80;;;11.60;;
67757;SDS011;54562;47.620;18.786;2022-11-04T03:46:35;21.10;;;9.00;;
67757;SDS011;54562;47.620;18.786;2022-11-04T03:49:46;28.50;;;11.90;;
67757;SDS011;54562;47.620;18.786;2022-11-04T03:52:55;24.70;;;11.50;;
67757;SDS011;54562;47.620;18.786;2022-11-04T04:00:03;35.20;;;15.50;;
67757;SDS011;54562;47.620;18.786;2022-11-04T04:03:19;32.00;;;12.10;;
67757;SDS011;54562;47.620;18.786;2022-11-04T04:06:32;35.30;;;14.40;;
67757;SDS011;54562;47.620;18.786;2022-11-04T04:09:43;29.30;;;12.70;;
67757;SDS011;54562;47.620;18.786;2022-11-04T04:12:58;39.00;;;17.40;;
67757;SDS011;54562;47.620;18.786;2022-11-04T04:16:16;31.70;;;13.50;;
67757;SDS011;54562;47.620;18.786;2022-11-04T04:19:32;30.70;;;13.60;;
67757;SDS011;54562;47.620;18.786;2022-11-04T04:22:44;32.90;;;15.90;;
67757;SDS011;54562;47.620;18.786;2022-11-04T04:25:59;29.30;;;11.30;;
67757;SDS011;54562;47.620;18.786;2022-11-04T04:29:28;36.90;;;17.00;;
67757;SDS011;54562;47.620;18.786;2022-11-04T04:32:39;40.40;;;18.10;;
67757;SDS011;54562;47.620;18.786;2022-11-04T04:35:52;32.70;;;15.20;;
67757;SDS011;54562;47.620;18.786;2022-11-04T04:39:05;28.80;;;13.70;;
67757;SDS011;54562;47.620;18.786;2022-11-04T04:42:33;21.70;;;10.20;;
67757;SDS011;54562;47.620;18.786;2022-11-04T04:45:59;25.60;;;10.60;;
67757;SDS011;54562;47.620;18.786;2022-11-04T04:49:08;32.90;;;14.40;;
67757;SDS011;54562;47.620;18.786;2022-11-04T04:52:16;32.90;;;15.80;;
67757;SDS011;54562;47.620;18.786;2022-11-04T04:55:26;22.90;;;10.00;;
67757;SDS011;54562;47.620;18.786;2022-11-04T04:58:35;23.10;;;11.20;;
67757;SDS011;54562;47.620;18.786;2022-11-04T05:01:43;33.20;;;14.70;;
67757;SDS011;54562;47.620;18.786;2022-11-04T05:04:51;39.10;;;17.90;;
67757;SDS011;54562;47.620;18.786;2022-11-04T05:08:06;35.50;;;16.00;;
67757;SDS011;54562;47.620;18.786;2022-11-04T05:11:16;36.00;;;15.30;;
67757;SDS011;54562;47.620;18.786;2022-11-04T05:14:30;28.60;;;10.20;;
67757;SDS011;54562;47.620;18.786;2022-11-04T05:17:39;27.80;;;10.40;;
67757;SDS011;54562;47.620;18.786;2022-11-04T05:20:47;35.40;;;14.10;;
67757;SDS011;54562;47.620;18.786;2022-11-04T05:23:55;36.10;;;16.50;;
67757;SDS011;54562;47.620;18.786;2022-11-04T05:27:03;38.20;;;15.30;;
67757;SDS011;54562;47.620;18.786;2022-11-04T05:30:11;37.50;;;15.90;;
67757;SDS011;54562;47.620;18.786;2022-11-04T05:33:20;40.60;;;16.20;;
67757;SDS011;54562;47.620;18.786;2022-11-04T05:36:28;39.80;;;17.40;;
67757;SDS011;54562;47.620;18.786;2022-11-04T05:39:37;48.30;;;20.30;;
67757;SDS011;54562;47.620;18.786;2022-11-04T05:42:44;49.10;;;20.00;;
67757;SDS011;54562;47.620;18.786;2022-11-04T05:45:53;36.50;;;14.40;;
67757;SDS011;54562;47.620;18.786;2022-11-04T05:49:07;39.80;;;18.20;;
67757;SDS011;54562;47.620;18.786;2022-11-04T05:52:17;22.20;;;9.60;;
67757;SDS011;54562;47.620;18.786;2022-11-04T05:55:25;30.40;;;13.90;;
67757;SDS011;54562;47.620;18.786;2022-11-04T05:58:33;41.40;;;18.60;;
67757;SDS011;54562;47.620;18.786;2022-11-04T06:01:42;51.00;;;22.00;;
67757;SDS011;54562;47.620;18.786;2022-11-04T06:04:50;35.20;;;14.50;;
67757;SDS011;54562;47.620;18.786;2022-11-04T06:07:58;41.80;;;17.30;;
67757;SDS011;54562;47.620;18.786;2022-11-04T06:14:14;30.10;;;12.00;;
67757;SDS011;54562;47.620;18.786;2022-11-04T06:17:23;34.20;;;15.00;;
67757;SDS011;54562;47.620;18.786;2022-11-04T06:20:31;36.10;;;14.70;;
67757;SDS011;54562;47.620;18.786;2022-11-04T06:23:39;37.60;;;15.40;;
67757;SDS011;54562;47.620;18.786;2022-11-04T06:26:47;40.00;;;16.00;;
67757;SDS011;54562;47.620;18.786;2022-11-04T06:29:56;42.10;;;17.10;;
67757;SDS011;54562;47.620;18.786;2022-11-04T06:33:03;41.50;;;16.60;;
67757;SDS011;54562;47.620;18.786;2022-11-04T06:36:13;38.40;;;14.80;;
67757;SDS011;54562;47.620;18.786;2022-11-04T06:39:22;39.70;;;15.60;;
67757;SDS011;54562;47.620;18.786;2022-11-04T06:42:30;41.10;;;16.40;;
67757;SDS011;54562;47.620;18.786;2022-11-04T06:45:38;48.50;;;19.00;;
67757;SDS011;54562;47.620;18.786;2022-11-04T06:48:46;29.40;;;12.40;;
67757;SDS011;54562;47.620;18.786;2022-11-04T06:51:55;25.70;;;11.90;;
67757;SDS011;54562;47.620;18.786;2022-11-04T06:55:06;48.10;;;20.50;;
67757;SDS011;54562;47.620;18.786;2022-11-04T06:58:14;37.70;;;14.00;;
67757;SDS011;54562;47.620;18.786;2022-11-04T07:01:24;36.20;;;12.50;;
67757;SDS011;54562;47.620;18.786;2022-11-04T07:04:33;33.80;;;15.70;;
67757;SDS011;54562;47.620;18.786;2022-11-04T07:07:43;37.70;;;15.50;;
67757;SDS011;54562;47.620;18.786;2022-11-04T07:10:55;41.00;;;18.50;;
67757;SDS011;54562;47.620;18.786;2022-11-04T07:14:03;40.20;;;16.80;;
67757;SDS011;54562;47.620;18.786;2022-11-04T07:17:12;18.40;;;7.80;;
67757;SDS011;54562;47.620;18.786;2022-11-04T07:20:20;33.90;;;14.90;;
67757;SDS011;54562;47.620;18.786;2022-11-04T07:23:28;47.60;;;19.40;;
67757;SDS011;54562;47.620;18.786;2022-11-04T07:26:37;48.70;;;22.10;;
67757;SDS011;54562;47.620;18.786;2022-11-04T07:29:46;30.40;;;12.40;;
67757;SDS011;54562;47.620;18.786;2022-11-04T07:32:54;26.50;;;11.10;;
67757;SDS011;54562;47.620;18.786;2022-11-04T07:36:05;28.40;;;11.60;;
67757;SDS011;54562;47.620;18.786;2022-11-04T07:39:16;40.30;;;16.60;;
67757;SDS011;54562;47.620;18.786;2022-11-04T07:42:24;43.30;;;16.70;;
67757;SDS011;54562;47.620;18.786;2022-11-04T07:45:32;22.50;;;9.80;;
67757;SDS011;54562;47.620;18.786;2022-11-04T07:48:40;42.00;;;17.70;;
67757;SDS011;54562;47.620;18.786;2022-11-04T07:51:49;47.10;;;19.40;;
67757;SDS011;54562;47.620;18.786;2022-11-04T07:54:57;48.30;;;18.40;;
67757;SDS011;54562;47.620;18.786;2022-11-04T07:58:04;34.40;;;15.50;;
67757;SDS011;54562;47.620;18.786;2022-11-04T08:01:15;44.50;;;19.00;;
67757;SDS011;54562;47.620;18.786;2022-11-04T08:04:27;48.20;;;19.50;;
67757;SDS011;54562;47.620;18.786;2022-11-04T08:07:35;41.20;;;16.60;;
67757;SDS011;54562;47.620;18.786;2022-11-04T08:10:44;22.70;;;9.00;;
67757;SDS011;54562;47.620;18.786;2022-11-04T08:13:56;45.60;;;18.60;;
67757;SDS011;54562;47.620;18.786;2022-11-04T08:17:04;39.80;;;15.10;;
67757;SDS011;54562;47.620;18.786;2022-11-04T08:20:12;43.40;;;20.30;;
67757;SDS011;54562;47.620;18.786;2022-11-04T08:23:21;34.10;;;13.60;;
67757;SDS011;54562;47.620;18.786;2022-11-04T08:26:29;41.10;;;17.00;;
67757;SDS011;54562;47.620;18.786;2022-11-04T08:29:38;37.00;;;15.80;;
67757;SDS011;54562;47.620;18.786;2022-11-04T08:32:45;38.80;;;16.30;;
67757;SDS011;54562;47.620;18.786;2022-11-04T08:35:55;40.90;;;17.50;;
67757;SDS011;54562;47.620;18.786;2022-11-04T08:39:06;46.60;;;20.20;;
67757;SDS011;54562;47.620;18.786;2022-11-04T08:42:15;36.80;;;15.60;;
67757;SDS011;54562;47.620;18.786;2022-11-04T08:45:25;52.20;;;21.20;;
67757;SDS011;54562;47.620;18.786;2022-11-04T08:48:39;37.40;;;15.90;;
67757;SDS011;54562;47.620;18.786;2022-11-04T08:51:47;29.80;;;12.80;;
67757;SDS011;54562;47.620;18.786;2022-11-04T08:55:00;50.80;;;22.20;;
67757;SDS011;54562;47.620;18.786;2022-11-04T08:58:09;39.60;;;15.80;;
67757;SDS011;54562;47.620;18.786;2022-11-04T09:01:17;39.00;;;15.60;;
67757;SDS011;54562;47.620;18.786;2022-11-04T09:04:27;46.50;;;19.30;;
67757;SDS011;54562;47.620;18.786;2022-11-04T09:07:36;38.50;;;15.40;;
67757;SDS011;54562;47.620;18.786;2022-11-04T09:10:45;23.60;;;9.90;;
67757;SDS011;54562;47.620;18.786;2022-11-04T09:13:53;42.30;;;18.50;;
67757;SDS011;54562;47.620;18.786;2022-11-04T09:17:03;25.90;;;11.60;;
67757;SDS011;54562;47.620;18.786;2022-11-04T09:20:11;33.60;;;13.00;;
67757;SDS011;54562;47.620;18.786;2022-11-04T09:23:19;30.30;;;12.80;;
67757;SDS011;54562;47.620;18.786;2022-11-04T09:26:27;41.20;;;17.30;;
67757;SDS011;54562;47.620;18.786;2022-11-04T09:29:35;41.30;;;16.80;;
67757;SDS011;54562;47.620;18.786;2022-11-04T09:32:44;39.80;;;16.50;;
67757;SDS011;54562;47.620;18.786;2022-11-04T09:35:57;28.10;;;12.30;;
67757;SDS011;54562;47.620;18.786;2022-11-04T09:39:05;42.40;;;19.00;;
67757;SDS011;54562;47.620;18.786;2022-11-04T09:42:29;34.40;;;15.10;;
67757;SDS011;54562;47.620;18.786;2022-11-04T09:45:47;31.90;;;13.70;;
67757;SDS011;54562;47.620;18.786;2022-11-04T09:48:57;38.80;;;14.80;;
67757;SDS011;54562;47.620;18.786;2022-11-04T09:52:16;26.10;;;12.40;;
67757;SDS011;54562;47.620;18.786;2022-11-04T09:55:31;20.10;;;9.00;;
67757;SDS011;54562;47.620;18.786;2022-11-04T09:58:45;24.20;;;9.60;;
67757;SDS011;54562;47.620;18.786;2022-11-04T10:02:02;47.00;;;20.40;;
67757;SDS011;54562;47.620;18.786;2022-11-04T10:05:36;43.20;;;17.20;;
67757;SDS011;54562;47.620;18.786;2022-11-04T10:09:09;46.30;;;17.90;;
67757;SDS011;54562;47.620;18.786;2022-11-04T10:12:44;35.50;;;16.20;;
67757;SDS011;54562;47.620;18.786;2022-11-04T10:16:14;32.00;;;14.30;;
67757;SDS011;54562;47.620;18.786;2022-11-04T10:19:47;23.80;;;10.90;;
67757;SDS011;54562;47.620;18.786;2022-11-04T10:23:12;26.20;;;10.50;;
67757;SDS011;54562;47.620;18.786;2022-11-04T10:26:31;31.70;;;13.90;;
67757;SDS011;54562;47.620;18.786;2022-11-04T10:29:46;26.80;;;10.70;;
67757;SDS011;54562;47.620;18.786;2022-11-04T10:33:03;30.60;;;12.50;;
67757;SDS011;54562;47.620;18.786;2022-11-04T10:36:18;24.30;;;10.40;;
67757;SDS011;54562;47.620;18.786;2022-11-04T10:39:33;31.10;;;13.60;;
67757;SDS011;54562;47.620;18.786;2022-11-04T10:42:44;35.60;;;15.00;;
67757;SDS011;54562;47.620;18.786;2022-11-04T10:46:04;33.30;;;15.40;;
67757;SDS011;54562;47.620;18.786;2022-11-04T10:49:47;32.50;;;15.50;;
67757;SDS011;54562;47.620;18.786;2022-11-04T10:53:34;26.30;;;12.90;;
67757;SDS011;54562;47.620;18.786;2022-11-04T10:56:45;32.00;;;13.00;;
67757;SDS011;54562;47.620;18.786;2022-11-04T10:59:57;28.80;;;12.20;;
67757;SDS011;54562;47.620;18.786;2022-11-04T11:03:24;40.70;;;18.60;;
67757;SDS011;54562;47.620;18.786;2022-11-04T11:06:37;31.20;;;12.00;;
67757;SDS011;54562;47.620;18.786;2022-11-04T11:09:51;30.90;;;13.70;;
67757;SDS011;54562;47.620;18.786;2022-11-04T11:13:06;24.40;;;12.80;;
67757;SDS011;54562;47.620;18.786;2022-11-04T11:16:31;23.10;;;10.50;;
67757;SDS011;54562;47.620;18.786;2022-11-04T11:19:47;37.40;;;17.70;;
67757;SDS011;54562;47.620;18.786;2022-11-04T11:22:58;41.40;;;20.70;;
67757;SDS011;54562;47.620;18.786;2022-11-04T11:26:10;32.50;;;14.70;;
67757;SDS011;54562;47.620;18.786;2022-11-04T11:29:24;44.70;;;20.10;;
67757;SDS011;54562;47.620;18.786;2022-11-04T11:32:35;28.60;;;12.50;;
67757;SDS011;54562;47.620;18.786;2022-11-04T11:35:51;20.60;;;9.90;;
67757;SDS011;54562;47.620;18.786;2022-11-04T11:39:03;46.00;;;21.40;;
67757;SDS011;54562;47.620;18.786;2022-11-04T11:42:21;41.50;;;18.90;;
67757;SDS011;54562;47.620;18.786;2022-11-04T11:45:31;45.40;;;20.10;;
67757;SDS011;54562;47.620;18.786;2022-11-04T11:48:41;32.70;;;14.40;;
67757;SDS011;54562;47.620;18.786;2022-11-04T11:52:01;39.30;;;16.60;;
67757;SDS011;54562;47.620;18.786;2022-11-04T11:55:36;42.80;;;16.80;;
67757;SDS011;54562;47.620;18.786;2022-11-04T11:58:51;32.30;;;13.60;;
67757;SDS011;54562;47.620;18.786;2022-11-04T12:02:35;26.60;;;13.80;;
67757;SDS011;54562;47.620;18.786;2022-11-04T12:05:56;54.80;;;24.40;;
67757;SDS011;54562;47.620;18.786;2022-11-04T12:09:29;34.00;;;14.20;;
67757;SDS011;54562;47.620;18.786;2022-11-04T12:12:50;46.40;;;22.40;;
67757;SDS011;54562;47.620;18.786;2022-11-04T12:16:17;47.00;;;21.60;;
67757;SDS011;54562;47.620;18.786;2022-11-04T12:19:40;27.30;;;11.80;;
67757;SDS011;54562;47.620;18.786;2022-11-04T12:23:06;47.10;;;20.50;;
67757;SDS011;54562;47.620;18.786;2022-11-04T12:26:32;33.60;;;13.90;;
67757;SDS011;54562;47.620;18.786;2022-11-04T12:29:56;26.90;;;12.20;;
67757;SDS011;54562;47.620;18.786;2022-11-04T12:33:20;31.70;;;13.90;;
67757;SDS011;54562;47.620;18.786;2022-11-04T12:36:52;48.90;;;21.60;;
67757;SDS011;54562;47.620;18.786;2022-11-04T12:40:20;44.90;;;19.50;;
67757;SDS011;54562;47.620;18.786;2022-11-04T12:43:39;34.30;;;14.10;;
67757;SDS011;54562;47.620;18.786;2022-11-04T12:47:06;28.30;;;14.10;;
67757;SDS011;54562;47.620;18.786;2022-11-04T12:50:38;38.00;;;16.90;;
67757;SDS011;54562;47.620;18.786;2022-11-04T12:54:07;43.00;;;17.80;;
67757;SDS011;54562;47.620;18.786;2022-11-04T12:57:32;45.60;;;18.90;;
67757;SDS011;54562;47.620;18.786;2022-11-04T13:04:05;43.40;;;19.30;;
67757;SDS011;54562;47.620;18.786;2022-11-04T13:07:23;35.90;;;15.70;;
67757;SDS011;54562;47.620;18.786;2022-11-04T13:10:39;28.90;;;13.30;;
67757;SDS011;54562;47.620;18.786;2022-11-04T13:13:59;33.20;;;16.00;;
67757;SDS011;54562;47.620;18.786;2022-11-04T13:17:13;35.50;;;15.80;;
67757;SDS011;54562;47.620;18.786;2022-11-04T13:20:28;42.90;;;19.30;;
67757;SDS011;54562;47.620;18.786;2022-11-04T13:23:45;41.80;;;18.60;;
67757;SDS011;54562;47.620;18.786;2022-11-04T13:27:02;48.90;;;18.90;;
67757;SDS011;54562;47.620;18.786;2022-11-04T13:30:32;42.00;;;18.50;;
67757;SDS011;54562;47.620;18.786;2022-11-04T13:33:49;44.80;;;18.40;;
67757;SDS011;54562;47.620;18.786;2022-11-04T13:37:11;37.90;;;16.00;;
67757;SDS011;54562;47.620;18.786;2022-11-04T13:40:30;42.10;;;18.80;;
67757;SDS011;54562;47.620;18.786;2022-11-04T13:43:50;36.50;;;16.60;;
67757;SDS011;54562;47.620;18.786;2022-11-04T13:47:03;38.50;;;18.20;;
67757;SDS011;54562;47.620;18.786;2022-11-04T13:50:32;37.20;;;18.60;;
67757;SDS011;54562;47.620;18.786;2022-11-04T13:53:44;44.30;;;18.60;;
67757;SDS011;54562;47.620;18.786;2022-11-04T13:57:04;34.60;;;18.30;;
67757;SDS011;54562;47.620;18.786;2022-11-04T14:00:23;44.20;;;19.80;;
67757;SDS011;54562;47.620;18.786;2022-11-04T14:03:51;37.30;;;16.80;;
67757;SDS011;54562;47.620;18.786;2022-11-04T14:07:07;44.10;;;19.40;;
67757;SDS011;54562;47.620;18.786;2022-11-04T14:10:39;40.60;;;18.90;;
67757;SDS011;54562;47.620;18.786;2022-11-04T14:14:16;38.00;;;19.00;;
67757;SDS011;54562;47.620;18.786;2022-11-04T14:18:02;40.20;;;20.00;;
67757;SDS011;54562;47.620;18.786;2022-11-04T14:21:17;41.00;;;20.50;;
67757;SDS011;54562;47.620;18.786;2022-11-04T14:24:28;47.50;;;21.50;;
67757;SDS011;54562;47.620;18.786;2022-11-04T14:27:39;34.60;;;15.70;;
67757;SDS011;54562;47.620;18.786;2022-11-04T14:30:51;50.90;;;20.20;;
67757;SDS011;54562;47.620;18.786;2022-11-04T14:34:01;35.60;;;17.80;;
67757;SDS011;54562;47.620;18.786;2022-11-04T14:37:19;31.00;;;16.10;;
67757;SDS011;54562;47.620;18.786;2022-11-04T14:40:48;47.10;;;22.50;;
67757;SDS011;54562;47.620;18.786;2022-11-04T14:44:20;44.50;;;21.10;;
67757;SDS011;54562;47.620;18.786;2022-11-04T14:47:34;28.40;;;13.50;;
67757;SDS011;54562;47.620;18.786;2022-11-04T14:50:44;50.30;;;21.70;;
67757;SDS011;54562;47.620;18.786;2022-11-04T14:54:01;38.40;;;18.10;;
67757;SDS011;54562;47.620;18.786;2022-11-04T14:57:20;39.50;;;21.00;;
67757;SDS011;54562;47.620;18.786;2022-11-04T15:00:34;34.70;;;15.30;;
67757;SDS011;54562;47.620;18.786;2022-11-04T15:03:46;40.50;;;19.90;;
67757;SDS011;54562;47.620;18.786;2022-11-04T15:07:30;41.10;;;21.30;;
67757;SDS011;54562;47.620;18.786;2022-11-04T15:10:39;35.30;;;16.90;;
67757;SDS011;54562;47.620;18.786;2022-11-04T15:13:49;37.10;;;15.80;;
67757;SDS011;54562;47.620;18.786;2022-11-04T15:17:02;29.60;;;16.60;;
67757;SDS011;54562;47.620;18.786;2022-11-04T15:20:22;42.10;;;21.30;;
67757;SDS011;54562;47.620;18.786;2022-11-04T15:23:35;44.60;;;22.10;;
67757;SDS011;54562;47.620;18.786;2022-11-04T15:26:52;43.80;;;21.80;;
67757;SDS011;54562;47.620;18.786;2022-11-04T15:30:15;32.50;;;16.90;;
67757;SDS011;54562;47.620;18.786;2022-11-04T15:33:26;33.70;;;15.60;;
67757;SDS011;54562;47.620;18.786;2022-11-04T15:36:37;40.30;;;18.40;;
67757;SDS011;54562;47.620;18.786;2022-11-04T15:39:50;30.60;;;15.30;;
67757;SDS011;54562;47.620;18.786;2022-11-04T15:43:02;31.60;;;16.40;;
67757;SDS011;54562;47.620;18.786;2022-11-04T15:46:18;30.30;;;16.00;;
67757;SDS011;54562;47.620;18.786;2022-11-04T15:49:29;47.30;;;24.40;;
67757;SDS011;54562;47.620;18.786;2022-11-04T15:52:38;37.90;;;18.60;;
67757;SDS011;54562;47.620;18.786;2022-11-04T15:55:55;40.60;;;20.10;;
67757;SDS011;54562;47.620;18.786;2022-11-04T15:59:08;35.80;;;18.40;;
67757;SDS011;54562;47.620;18.786;2022-11-04T16:02:27;35.70;;;18.20;;
67757;SDS011;54562;47.620;18.786;2022-11-04T16:05:37;39.80;;;18.20;;
67757;SDS011;54562;47.620;18.786;2022-11-04T16:09:00;44.60;;;20.40;;
67757;SDS011;54562;47.620;18.786;2022-11-04T16:12:15;35.80;;;18.10;;
67757;SDS011;54562;47.620;18.786;2022-11-04T16:15:39;35.50;;;17.90;;
67757;SDS011;54562;47.620;18.786;2022-11-04T16:18:54;40.70;;;20.10;;
67757;SDS011;54562;47.620;18.786;2022-11-04T16:22:05;40.90;;;21.60;;
67757;SDS011;54562;47.620;18.786;2022-11-04T16:25:21;34.30;;;17.50;;
67757;SDS011;54562;47.620;18.786;2022-11-04T16:28:38;35.00;;;17.70;;
67757;SDS011;54562;47.620;18.786;2022-11-04T16:32:07;34.10;;;17.50;;
67757;SDS011;54562;47.620;18.786;2022-11-04T16:35:22;27.60;;;14.00;;
67757;SDS011;54562;47.620;18.786;2022-11-04T16:38:31;34.40;;;17.20;;
67757;SDS011;54562;47.620;18.786;2022-11-04T16:41:39;41.10;;;20.90;;
67757;SDS011;54562;47.620;18.786;2022-11-04T16:44:49;41.20;;;21.50;;
67757;SDS011;54562;47.620;18.786;2022-11-04T16:48:07;24.40;;;13.80;;
67757;SDS011;54562;47.620;18.786;2022-11-04T16:51:21;31.30;;;16.20;;
67757;SDS011;54562;47.620;18.786;2022-11-04T16:54:30;28.60;;;14.70;;
67757;SDS011;54562;47.620;18.786;2022-11-04T16:57:38;47.20;;;22.60;;
67757;SDS011;54562;47.620;18.786;2022-11-04T17:00:48;45.20;;;24.10;;
67757;SDS011;54562;47.620;18.786;2022-11-04T17:03:55;33.30;;;17.10;;
67757;SDS011;54562;47.620;18.786;2022-11-04T17:07:06;39.80;;;22.60;;
67757;SDS011;54562;47.620;18.786;2022-11-04T17:10:16;42.00;;;20.50;;
67757;SDS011;54562;47.620;18.786;2022-11-04T17:13:26;28.30;;;14.30;;
67757;SDS011;54562;47.620;18.786;2022-11-04T17:16:39;46.00;;;25.20;;
67757;SDS011;54562;47.620;18.786;2022-11-04T17:19:48;46.10;;;26.20;;
67757;SDS011;54562;47.620;18.786;2022-11-04T17:22:55;27.00;;;13.60;;
67757;SDS011;54562;47.620;18.786;2022-11-04T17:26:05;45.20;;;24.80;;
67757;SDS011;54562;47.620;18.786;2022-11-04T17:29:12;29.00;;;14.60;;
67757;SDS011;54562;47.620;18.786;2022-11-04T17:32:21;32.80;;;17.10;;
67757;SDS011;54562;47.620;18.786;2022-11-04T17:35:29;49.90;;;27.10;;
67757;SDS011;54562;47.620;18.786;2022-11-04T17:38:37;38.00;;;18.30;;
67757;SDS011;54562;47.620;18.786;2022-11-04T17:41:45;46.90;;;25.90;;
67757;SDS011;54562;47.620;18.786;2022-11-04T17:45:10;39.40;;;20.90;;
67757;SDS011;54562;47.620;18.786;2022-11-04T17:48:19;33.90;;;17.90;;
67757;SDS011;54562;47.620;18.786;2022-11-04T17:51:27;37.00;;;18.10;;
67757;SDS011;54562;47.620;18.786;2022-11-04T17:54:35;34.00;;;18.60;;
67757;SDS011;54562;47.620;18.786;2022-11-04T17:57:43;40.30;;;22.10;;
67757;SDS011;54562;47.620;18.786;2022-11-04T18:00:51;43.50;;;24.00;;
67757;SDS011;54562;47.620;18.786;2022-11-04T18:03:59;43.10;;;24.40;;
67757;SDS011;54562;47.620;18.786;2022-11-04T18:07:08;43.90;;;25.90;;
67757;SDS011;54562;47.620;18.786;2022-11-04T18:10:16;44.00;;;24.30;;
67757;SDS011;54562;47.620;18.786;2022-11-04T18:13:24;45.90;;;26.00;;
67757;SDS011;54562;47.620;18.786;2022-11-04T18:16:33;51.90;;;27.90;;
67757;SDS011;54562;47.620;18.786;2022-11-04T18:19:40;47.40;;;29.50;;
67757;SDS011;54562;47.620;18.786;2022-11-04T18:22:49;48.50;;;29.70;;
67757;SDS011;54562;47.620;18.786;2022-11-04T18:25:57;53.30;;;29.60;;
67757;SDS011;54562;47.620;18.786;2022-11-04T18:29:06;47.30;;;29.60;;
67757;SDS011;54562;47.620;18.786;2022-11-04T18:32:15;52.00;;;31.20;;
67757;SDS011;54562;47.620;18.786;2022-11-04T18:35:23;46.20;;;28.80;;
67757;SDS011;54562;47.620;18.786;2022-11-04T18:38:30;43.90;;;26.80;;
67757;SDS011;54562;47.620;18.786;2022-11-04T18:41:39;44.90;;;26.90;;
67757;SDS011;54562;47.620;18.786;2022-11-04T18:44:47;43.20;;;26.50;;
67757;SDS011;54562;47.620;18.786;2022-11-04T18:47:55;47.10;;;26.80;;